createdAt,value
2018-06-29T00:01:50.729Z,19.80
2018-06-29T00:06:54.751Z,19.80
2018-06-29T00:11:58.801Z,19.60
2018-06-29T00:17:02.487Z,19.60
2018-06-29T00:22:06.554Z,19.60
2018-06-29T00:27:10.468Z,19.50
2018-06-29T00:32:14.212Z,19.50
2018-06-29T00:37:18.660Z,19.70
2018-06-29T00:42:22.599Z,19.80
2018-06-29T00:47:26.625Z,19.60
2018-06-29T00:52:31.096Z,19.40
2018-06-29T00:57:35.046Z,19.40
2018-06-29T01:02:38.770Z,19.20
2018-06-29T01:07:42.472Z,19.10
2018-06-29T01:12:46.167Z,19.20
2018-06-29T01:17:49.856Z,19.30
2018-06-29T01:22:53.580Z,19.20
2018-06-29T01:27:57.410Z,19.10
2018-06-29T01:33:01.121Z,19.00
2018-06-29T01:38:09.929Z,18.80
2018-06-29T01:43:13.683Z,19.00
2018-06-29T01:48:17.457Z,19.00
2018-06-29T01:53:21.380Z,19.10
2018-06-29T01:58:25.806Z,19.00
2018-06-29T02:03:29.744Z,19.00
2018-06-29T02:08:34.232Z,18.80
2018-06-29T02:13:39.688Z,18.90
2018-06-29T02:18:43.361Z,18.80
2018-06-29T02:23:47.074Z,19.00
2018-06-29T02:28:50.771Z,18.90
2018-06-29T02:33:54.707Z,19.00
2018-06-29T02:38:58.523Z,18.80
2018-06-29T02:44:02.225Z,18.70
2018-06-29T02:49:06.461Z,18.70
2018-06-29T02:54:10.307Z,18.80
2018-06-29T02:59:14.139Z,18.70
2018-06-29T03:04:17.793Z,18.70
2018-06-29T03:09:21.580Z,18.80
2018-06-29T03:14:25.269Z,19.00
2018-06-29T03:19:29.009Z,19.20
2018-06-29T03:24:32.664Z,19.30
2018-06-29T03:29:36.363Z,19.40
2018-06-29T03:34:40.504Z,19.40
2018-06-29T03:39:44.438Z,19.40
2018-06-29T03:44:48.111Z,19.30
2018-06-29T03:49:51.916Z,19.40
2018-06-29T03:54:55.771Z,19.40
2018-06-29T03:59:59.444Z,19.30
2018-06-29T04:05:05.446Z,19.30
2018-06-29T04:10:09.535Z,19.40
2018-06-29T04:15:13.597Z,19.60
2018-06-29T04:20:17.322Z,19.60
2018-06-29T04:25:21.007Z,19.60
2018-06-29T04:30:24.674Z,19.40
2018-06-29T04:35:28.478Z,19.40
2018-06-29T04:40:32.174Z,19.60
2018-06-29T04:45:35.865Z,19.70
2018-06-29T04:50:39.555Z,19.60
2018-06-29T04:55:44.105Z,19.50
2018-06-29T05:00:47.841Z,19.30
2018-06-29T05:05:52.194Z,19.40
2018-06-29T05:10:56.862Z,19.40
2018-06-29T05:16:00.705Z,19.40
2018-06-29T05:21:04.454Z,19.50
2018-06-29T05:31:11.505Z,19.70
2018-06-29T05:36:16.190Z,19.60
2018-06-29T05:41:21.779Z,19.50
2018-06-29T05:46:26.179Z,19.50
2018-06-29T05:56:33.776Z,19.60
2018-06-29T06:01:37.595Z,19.60
2018-06-29T06:06:41.407Z,19.60
2018-06-29T06:11:45.050Z,19.70
2018-06-29T06:16:48.757Z,19.80
2018-06-29T06:21:52.442Z,19.80
2018-06-29T06:26:58.323Z,19.90
2018-06-29T06:32:01.973Z,20.00
2018-06-29T06:37:08.968Z,19.90
2018-06-29T06:42:19.783Z,19.70
2018-06-29T06:47:23.497Z,19.70
2018-06-29T06:52:27.920Z,19.70
2018-06-29T06:57:32.013Z,19.50
2018-06-29T07:02:35.662Z,19.60
2018-06-29T07:07:40.370Z,19.70
2018-06-29T07:12:44.082Z,19.70
2018-06-29T07:17:47.749Z,19.80
2018-06-29T07:22:51.776Z,19.90
2018-06-29T07:32:58.748Z,20.00
2018-06-29T07:38:02.710Z,19.90
2018-06-29T07:43:07.059Z,20.10
2018-06-29T07:48:11.069Z,20.30
2018-06-29T07:53:14.821Z,20.50
2018-06-29T07:58:18.750Z,20.80
2018-06-29T08:03:23.281Z,20.80
2018-06-29T08:08:27.811Z,20.90
2018-06-29T08:13:31.690Z,21.20
2018-06-29T08:18:35.564Z,21.60
2018-06-29T08:23:39.201Z,21.70
2018-06-29T08:28:42.945Z,21.80
2018-06-29T08:33:47.136Z,21.70
2018-06-29T08:38:54.244Z,21.70
2018-06-29T08:43:58.640Z,21.90
2018-06-29T08:49:02.331Z,22.00
2018-06-29T08:54:05.992Z,22.30
2018-06-29T08:59:09.976Z,22.30
2018-06-29T09:04:13.668Z,22.30
2018-06-29T09:09:17.424Z,22.50
2018-06-29T09:14:21.510Z,22.90
2018-06-29T09:19:25.532Z,23.10
2018-06-29T09:29:41.795Z,23.60
2018-06-29T09:34:45.736Z,23.70
2018-06-29T09:39:49.768Z,23.90
2018-06-29T09:44:53.824Z,23.80
2018-06-29T09:49:57.774Z,23.80
2018-06-29T09:55:01.461Z,23.90
2018-06-29T10:00:07.612Z,23.90
2018-06-29T10:05:11.312Z,23.70
2018-06-29T10:10:15.439Z,23.70
2018-06-29T10:15:19.857Z,23.70
2018-06-29T10:20:23.625Z,23.70
2018-06-29T10:25:27.350Z,23.40
2018-06-29T10:30:31.039Z,23.50
2018-06-29T10:35:34.737Z,23.70
2018-06-29T10:40:38.554Z,23.70
2018-06-29T10:45:42.466Z,23.50
2018-06-29T10:55:49.694Z,23.70
2018-06-29T11:00:53.493Z,23.80
2018-06-29T11:05:57.429Z,24.00
2018-06-29T11:11:01.515Z,24.20
2018-06-29T11:16:05.485Z,24.40
2018-06-29T11:21:09.148Z,24.60
2018-06-29T11:26:16.232Z,24.80
2018-06-29T11:31:19.904Z,25.00
2018-06-29T11:36:23.848Z,25.20
2018-06-29T11:41:33.929Z,25.40
2018-06-29T11:46:38.420Z,25.70
2018-06-29T11:51:42.844Z,26.00
2018-06-29T11:56:46.541Z,26.40
2018-06-29T12:01:50.537Z,26.50
2018-06-29T12:06:55.069Z,26.30
2018-06-29T12:11:58.864Z,26.80
2018-06-29T12:17:03.812Z,27.10
2018-06-29T12:22:07.532Z,27.40
2018-06-29T12:27:11.581Z,27.90
2018-06-29T12:32:16.166Z,28.40
2018-06-29T12:37:21.353Z,28.50
2018-06-29T12:42:25.179Z,28.70
2018-06-29T12:47:28.859Z,29.10
2018-06-29T12:52:32.549Z,29.40
2018-06-29T12:57:36.238Z,29.70
2018-06-29T13:02:39.912Z,29.70
2018-06-29T13:07:43.581Z,30.10
2018-06-29T13:12:47.284Z,30.40
2018-06-29T13:17:52.997Z,30.50
2018-06-29T13:22:56.913Z,30.60
2018-06-29T13:28:00.792Z,30.60
2018-06-29T13:33:04.511Z,30.40
2018-06-29T13:38:08.978Z,30.40
2018-06-29T13:43:13.051Z,31.00
2018-06-29T13:48:17.381Z,31.40
2018-06-29T13:53:21.268Z,31.50
2018-06-29T13:58:25.273Z,31.60
2018-06-29T14:03:28.993Z,31.50
2018-06-29T14:08:32.701Z,31.30
2018-06-29T14:13:36.445Z,31.30
2018-06-29T14:18:40.176Z,31.70
2018-06-29T14:23:44.468Z,31.80
2018-06-29T14:33:52.297Z,31.90
2018-06-29T14:38:56.172Z,31.70
2018-06-29T14:43:59.813Z,32.00
2018-06-29T14:49:03.508Z,32.20
2018-06-29T14:54:07.576Z,32.30
2018-06-29T14:59:11.525Z,32.40
2018-06-29T15:04:15.517Z,32.50
2018-06-29T15:09:20.231Z,32.80
2018-06-29T15:14:23.996Z,33.30
2018-06-29T15:19:27.684Z,33.10
2018-06-29T15:24:31.661Z,32.80
2018-06-29T15:29:35.377Z,32.90
2018-06-29T15:34:39.430Z,32.50
2018-06-29T15:39:43.104Z,32.60
2018-06-29T15:44:46.852Z,32.40
2018-06-29T15:49:50.516Z,32.20
2018-06-29T15:54:54.202Z,32.40
2018-06-29T15:59:57.896Z,32.20
2018-06-29T16:05:01.633Z,31.70
2018-06-29T16:10:06.768Z,31.40
2018-06-29T16:15:10.446Z,30.90
2018-06-29T16:20:14.126Z,31.00
2018-06-29T16:25:17.946Z,31.30
2018-06-29T16:30:21.699Z,31.30
2018-06-29T16:35:25.895Z,31.30
2018-06-29T16:40:29.834Z,31.10
2018-06-29T16:45:34.121Z,31.10
2018-06-29T16:50:38.170Z,31.00
2018-06-29T16:55:43.126Z,30.80
2018-06-29T17:00:47.487Z,30.70
2018-06-29T17:05:51.345Z,30.50
2018-06-29T17:10:55.075Z,30.50
2018-06-29T17:15:58.974Z,30.20
2018-06-29T17:21:03.061Z,30.40
2018-06-29T17:26:07.336Z,30.50
2018-06-29T17:31:11.430Z,30.40
2018-06-29T17:36:15.116Z,30.20
2018-06-29T17:41:18.824Z,29.80
2018-06-29T17:46:23.115Z,29.50
2018-06-29T17:51:26.808Z,29.60
2018-06-29T17:56:30.484Z,29.40
2018-06-29T18:01:34.365Z,29.40
2018-06-29T18:06:38.304Z,29.40
2018-06-29T18:11:42.287Z,29.20
2018-06-29T18:16:45.986Z,29.00
2018-06-29T18:21:49.676Z,28.80
2018-06-29T18:26:53.785Z,28.70
2018-06-29T18:31:57.457Z,28.60
2018-06-29T18:37:01.145Z,28.30
2018-06-29T18:42:04.915Z,28.20
2018-06-29T18:47:08.916Z,28.10
2018-06-29T18:52:12.608Z,27.90
2018-06-29T18:57:16.520Z,27.60
2018-06-29T19:02:20.169Z,27.30
2018-06-29T19:07:25.505Z,27.00
2018-06-29T19:12:29.181Z,26.70
2018-06-29T19:17:32.913Z,26.60
2018-06-29T19:22:36.928Z,26.50
2018-06-29T19:27:41.495Z,26.30
2018-06-29T19:32:47.897Z,26.20
2018-06-29T19:37:53.342Z,26.10
2018-06-29T19:42:57.649Z,26.00
2018-06-29T19:48:01.309Z,26.00
2018-06-29T19:53:05.370Z,25.80
2018-06-29T19:58:09.081Z,25.70
2018-06-29T20:03:12.832Z,25.60
2018-06-29T20:08:16.740Z,25.60
2018-06-29T20:13:20.556Z,25.50
2018-06-29T20:18:24.543Z,25.50
2018-06-29T20:23:29.110Z,25.40
2018-06-29T20:33:36.328Z,25.30
2018-06-29T20:38:40.083Z,25.20
2018-06-29T20:43:43.791Z,25.10
2018-06-29T20:48:47.594Z,25.00
2018-06-29T20:53:51.581Z,24.80
2018-06-29T20:58:55.351Z,24.80
2018-06-29T21:03:58.990Z,24.50
2018-06-29T21:09:04.859Z,24.30
2018-06-29T21:14:08.563Z,24.20
2018-06-29T21:19:12.400Z,24.10
2018-06-29T21:24:16.302Z,24.00
2018-06-29T21:29:20.205Z,23.80
2018-06-29T21:34:23.923Z,23.70
2018-06-29T21:39:27.901Z,23.60
2018-06-29T21:44:31.700Z,23.60
2018-06-29T21:49:36.077Z,23.50
2018-06-29T21:54:39.794Z,23.40
2018-06-29T21:59:43.536Z,23.20
2018-06-29T22:04:47.239Z,23.10
2018-06-29T22:09:51.790Z,23.00
2018-06-29T22:14:55.931Z,22.90
2018-06-29T22:20:00.536Z,22.80
2018-06-29T22:25:09.753Z,22.70
2018-06-29T22:30:15.382Z,22.60
2018-06-29T22:35:19.444Z,22.50
2018-06-29T22:40:24.944Z,22.40
2018-06-29T22:45:28.761Z,22.40
2018-06-29T22:50:33.118Z,22.30
2018-06-29T22:55:36.876Z,22.40
2018-06-29T23:00:40.718Z,22.50
2018-06-29T23:05:44.484Z,22.60
2018-06-29T23:10:48.142Z,22.50
2018-06-29T23:15:53.325Z,22.40
2018-06-29T23:20:57.520Z,22.20
2018-06-29T23:26:01.237Z,22.10
2018-06-29T23:31:05.241Z,22.00
2018-06-29T23:36:08.923Z,21.90
2018-06-29T23:41:12.606Z,21.80
2018-06-29T23:46:16.364Z,21.70
2018-06-29T23:51:20.134Z,21.80
2018-06-29T23:56:24.027Z,21.90
